createdAt,value
2022-12-18T00:00:01.857Z,6.40
2022-12-18T00:01:02.464Z,6.30
2022-12-18T00:02:02.337Z,9.03
2022-12-18T00:03:01.552Z,6.40
2022-12-18T00:04:04.084Z,7.30
2022-12-18T00:05:01.858Z,6.40
2022-12-18T00:06:02.440Z,7.20
2022-12-18T00:07:01.504Z,6.10
2022-12-18T00:08:02.291Z,4.60
2022-12-18T00:09:02.992Z,7.20
2022-12-18T00:10:01.465Z,6.10
2022-12-18T00:11:04.814Z,8.10
2022-12-18T00:13:03.908Z,6.70
2022-12-18T00:14:02.121Z,7.50
2022-12-18T00:15:01.465Z,7.10
2022-12-18T00:16:03.311Z,7.90
2022-12-18T00:17:01.448Z,5.50
2022-12-18T00:18:01.484Z,6.90
2022-12-18T00:19:02.021Z,7.00
2022-12-18T00:20:02.311Z,5.27
2022-12-18T00:21:03.697Z,8.70
2022-12-18T00:22:01.786Z,8.50
2022-12-18T00:23:01.861Z,7.93
2022-12-18T00:24:02.527Z,8.03
2022-12-18T00:25:02.078Z,7.13
2022-12-18T00:26:03.515Z,6.50
2022-12-18T00:27:01.810Z,9.23
2022-12-18T00:28:02.301Z,7.07
2022-12-18T00:29:03.825Z,7.07
2022-12-18T00:30:01.493Z,7.53
2022-12-18T00:31:02.605Z,8.70
2022-12-18T00:32:01.576Z,8.50
2022-12-18T00:33:01.479Z,7.77
2022-12-18T00:34:01.838Z,7.33
2022-12-18T00:35:02.327Z,7.23
2022-12-18T00:36:01.760Z,9.40
2022-12-18T00:37:01.796Z,6.33
2022-12-18T00:38:01.803Z,7.80
2022-12-18T00:39:04.056Z,4.20
2022-12-18T00:40:01.990Z,8.43
2022-12-18T00:41:02.069Z,8.50
2022-12-18T00:42:01.456Z,10.07
2022-12-18T00:43:01.475Z,7.87
2022-12-18T00:44:02.725Z,10.53
2022-12-18T00:45:01.801Z,10.50
2022-12-18T00:46:01.951Z,8.70
2022-12-18T00:47:01.458Z,6.40
2022-12-18T00:48:01.559Z,9.40
2022-12-18T00:49:02.840Z,9.10
2022-12-18T00:50:01.846Z,7.30
2022-12-18T00:51:01.786Z,10.80
2022-12-18T00:52:01.459Z,9.83
2022-12-18T00:53:01.800Z,9.60
2022-12-18T00:54:01.849Z,8.40
2022-12-18T00:55:06.260Z,6.50
2022-12-18T00:56:01.795Z,9.50
2022-12-18T00:57:01.861Z,8.60
2022-12-18T00:58:01.445Z,8.40
2022-12-18T00:59:01.480Z,9.40
2022-12-18T01:00:02.511Z,9.00
2022-12-18T01:01:03.967Z,9.90
2022-12-18T01:02:01.642Z,8.80
2022-12-18T01:03:02.550Z,9.80
2022-12-18T01:04:03.217Z,8.40
2022-12-18T01:05:01.462Z,10.80
2022-12-18T01:06:06.770Z,9.00
2022-12-18T01:07:01.465Z,9.10
2022-12-18T01:08:01.721Z,8.80
2022-12-18T01:09:01.884Z,8.30
2022-12-18T01:10:01.457Z,8.60
2022-12-18T01:11:07.256Z,7.23
2022-12-18T01:12:01.825Z,10.43
2022-12-18T01:13:01.465Z,10.80
2022-12-18T01:14:01.486Z,8.63
2022-12-18T01:15:01.953Z,9.57
2022-12-18T01:16:02.175Z,8.43
2022-12-18T01:17:01.790Z,8.80
2022-12-18T01:18:01.444Z,8.60
2022-12-18T01:19:02.068Z,9.03
2022-12-18T01:20:01.537Z,7.10
2022-12-18T01:21:06.070Z,8.37
2022-12-18T01:22:01.798Z,9.07
2022-12-18T01:23:01.474Z,8.57
2022-12-18T01:24:01.798Z,10.37
2022-12-18T01:25:03.264Z,6.70
2022-12-18T01:26:05.664Z,8.13
2022-12-18T01:27:01.822Z,9.20
2022-12-18T01:28:02.022Z,7.80
2022-12-18T01:29:01.451Z,9.30
2022-12-18T01:30:02.669Z,9.50
2022-12-18T01:31:12.610Z,7.30
2022-12-18T01:32:01.521Z,10.20
2022-12-18T01:33:01.470Z,9.70
2022-12-18T01:34:01.904Z,11.33
2022-12-18T01:35:01.684Z,9.40
2022-12-18T01:36:01.450Z,10.10
2022-12-18T01:37:03.223Z,8.60
2022-12-18T01:38:01.790Z,8.70
2022-12-18T01:39:03.797Z,9.50
2022-12-18T01:40:01.699Z,9.17
2022-12-18T01:41:02.400Z,9.70
2022-12-18T01:42:03.194Z,7.37
2022-12-18T01:43:01.823Z,8.40
2022-12-18T01:44:01.463Z,9.00
2022-12-18T01:45:04.705Z,8.60
2022-12-18T01:46:01.494Z,9.93
2022-12-18T01:47:01.608Z,7.37
2022-12-18T01:48:05.395Z,7.07
2022-12-18T01:49:02.295Z,9.20
2022-12-18T01:50:06.657Z,7.63
2022-12-18T01:51:01.734Z,8.60
2022-12-18T01:52:02.105Z,8.10
2022-12-18T01:53:10.170Z,7.30
2022-12-18T01:54:01.473Z,11.17
2022-12-18T01:55:04.165Z,9.07
2022-12-18T01:56:01.862Z,10.70
2022-12-18T01:57:01.858Z,10.33
2022-12-18T01:58:02.294Z,9.13
2022-12-18T01:59:05.115Z,5.57
2022-12-18T02:00:05.799Z,8.33
2022-12-18T02:01:01.891Z,11.40
2022-12-18T02:02:03.525Z,8.40
2022-12-18T02:03:02.304Z,8.90
2022-12-18T02:04:19.399Z,8.00
2022-12-18T02:05:03.005Z,7.50
2022-12-18T02:06:10.469Z,8.10
2022-12-18T02:07:11.579Z,12.00
2022-12-18T02:08:10.406Z,9.43
2022-12-18T02:09:11.386Z,9.47
2022-12-18T02:10:07.545Z,10.47
2022-12-18T02:11:07.540Z,8.47
2022-12-18T02:12:10.265Z,8.20
2022-12-18T02:13:10.975Z,11.40
2022-12-18T02:14:12.742Z,8.77
2022-12-18T02:15:09.860Z,8.50
2022-12-18T02:16:08.245Z,9.10
2022-12-18T02:17:07.521Z,7.00
2022-12-18T02:18:07.991Z,10.00
2022-12-18T02:19:15.424Z,10.10
2022-12-18T02:20:12.449Z,9.30
2022-12-18T02:21:11.822Z,7.70
2022-12-18T02:22:13.046Z,7.00
2022-12-18T02:23:18.046Z,9.33
2022-12-18T02:24:17.746Z,8.60
2022-12-18T02:25:12.687Z,9.10
2022-12-18T02:26:07.877Z,9.30
2022-12-18T02:27:05.647Z,7.27
2022-12-18T02:28:07.306Z,8.40
2022-12-18T02:29:07.123Z,7.70
2022-12-18T02:30:04.319Z,10.00
2022-12-18T02:31:06.201Z,7.80
2022-12-18T02:32:06.152Z,11.07
2022-12-18T02:33:04.988Z,10.60
2022-12-18T02:34:04.910Z,8.70
2022-12-18T02:35:04.590Z,9.13
2022-12-18T02:36:04.647Z,10.57
2022-12-18T02:37:06.113Z,9.33
2022-12-18T02:38:03.377Z,10.70
2022-12-18T02:39:03.491Z,8.80
2022-12-18T02:40:04.886Z,10.13
2022-12-18T02:41:04.352Z,9.93
2022-12-18T02:42:02.213Z,11.53
2022-12-18T02:43:10.575Z,11.60
2022-12-18T02:44:07.129Z,10.73
2022-12-18T02:45:01.805Z,9.37
2022-12-18T02:46:21.114Z,10.87
2022-12-18T02:47:02.660Z,11.20
2022-12-18T02:48:02.001Z,9.53
2022-12-18T02:49:11.688Z,11.53
2022-12-18T02:50:14.836Z,8.87
2022-12-18T02:51:08.649Z,10.97
2022-12-18T02:52:07.973Z,9.97
2022-12-18T02:53:11.053Z,8.60
2022-12-18T02:54:10.461Z,10.63
2022-12-18T02:55:13.424Z,11.20
2022-12-18T02:56:07.621Z,8.90
2022-12-18T02:57:10.197Z,9.63
2022-12-18T02:58:09.119Z,10.30
2022-12-18T02:59:06.560Z,11.57
2022-12-18T03:00:08.002Z,11.23
2022-12-18T03:01:09.831Z,9.60
2022-12-18T03:02:09.969Z,10.20
2022-12-18T03:03:09.820Z,10.70
2022-12-18T03:04:07.303Z,10.90
2022-12-18T03:05:09.617Z,11.50
2022-12-18T03:06:06.350Z,11.00
2022-12-18T03:07:08.026Z,11.80
2022-12-18T03:08:06.967Z,9.77
2022-12-18T03:09:09.216Z,11.80
2022-12-18T03:10:03.200Z,9.80
2022-12-18T03:11:04.874Z,11.10
2022-12-18T03:12:10.590Z,11.90
2022-12-18T03:13:06.292Z,11.10
2022-12-18T03:14:04.128Z,12.70
2022-12-18T03:15:11.052Z,12.00
2022-12-18T03:16:05.500Z,12.90
2022-12-18T03:17:06.388Z,12.30
2022-12-18T03:18:07.913Z,13.30
2022-12-18T03:19:07.040Z,10.70
2022-12-18T03:20:07.744Z,9.70
2022-12-18T03:21:06.134Z,11.70
2022-12-18T03:22:06.248Z,11.27
2022-12-18T03:23:07.329Z,10.90
2022-12-18T03:24:06.181Z,12.70
2022-12-18T03:25:06.047Z,12.80
2022-12-18T03:26:07.693Z,11.60
2022-12-18T03:27:05.565Z,11.10
2022-12-18T03:28:06.436Z,11.10
2022-12-18T03:29:06.549Z,12.00
2022-12-18T03:30:05.607Z,11.10
2022-12-18T03:31:05.110Z,10.30
2022-12-18T03:32:05.986Z,13.00
2022-12-18T03:33:08.760Z,10.80
2022-12-18T03:34:09.184Z,10.40
2022-12-18T03:35:05.922Z,10.80
2022-12-18T03:36:01.787Z,11.30
2022-12-18T03:37:02.329Z,11.30
2022-12-18T03:38:02.055Z,11.20
2022-12-18T03:39:01.479Z,9.90
2022-12-18T03:40:02.101Z,12.40
2022-12-18T03:41:10.708Z,10.70
2022-12-18T03:42:06.782Z,10.80
2022-12-18T03:43:09.030Z,10.70
2022-12-18T03:44:10.939Z,11.50
2022-12-18T03:45:10.284Z,11.80
2022-12-18T03:46:07.088Z,13.50
2022-12-18T03:47:08.097Z,12.80
2022-12-18T03:48:07.606Z,12.20
2022-12-18T03:49:09.870Z,10.90
2022-12-18T03:50:12.954Z,11.30
2022-12-18T03:51:08.149Z,12.70
2022-12-18T03:52:06.292Z,11.30
2022-12-18T03:53:17.480Z,10.80
2022-12-18T03:54:04.184Z,11.40
2022-12-18T03:55:03.635Z,11.20
2022-12-18T03:56:04.071Z,9.60
2022-12-18T03:57:09.957Z,11.70
2022-12-18T03:58:03.680Z,10.40
2022-12-18T03:59:04.944Z,10.60
2022-12-18T04:00:06.081Z,12.10
2022-12-18T04:01:06.037Z,11.20
2022-12-18T04:02:04.340Z,12.20
2022-12-18T04:03:03.598Z,11.00
2022-12-18T04:04:03.858Z,11.20
2022-12-18T04:05:07.488Z,11.10
2022-12-18T04:06:03.085Z,12.30
2022-12-18T04:07:03.062Z,12.00
2022-12-18T04:08:02.300Z,11.30
2022-12-18T04:09:01.927Z,13.30
2022-12-18T04:10:03.592Z,11.60
2022-12-18T04:11:02.570Z,11.70
2022-12-18T04:12:01.461Z,12.20
2022-12-18T04:13:01.829Z,10.90
2022-12-18T04:14:05.856Z,12.60
2022-12-18T04:15:02.073Z,11.20
2022-12-18T04:16:01.654Z,11.60
2022-12-18T04:17:01.938Z,11.97
2022-12-18T04:18:01.466Z,10.37
2022-12-18T04:19:01.546Z,11.30
2022-12-18T04:20:01.808Z,10.90
2022-12-18T04:21:02.490Z,10.20
2022-12-18T04:22:01.462Z,11.60
2022-12-18T04:23:01.476Z,10.30
2022-12-18T04:24:01.819Z,10.40
2022-12-18T04:25:01.464Z,10.40
2022-12-18T04:26:01.945Z,12.10
2022-12-18T04:27:01.554Z,11.50
2022-12-18T04:28:01.463Z,11.20
2022-12-18T04:29:01.672Z,11.30
2022-12-18T04:30:01.819Z,11.60
2022-12-18T04:31:01.569Z,9.60
2022-12-18T04:32:01.458Z,9.80
2022-12-18T04:33:01.478Z,11.33
2022-12-18T04:34:01.645Z,9.13
2022-12-18T04:35:01.693Z,10.30
2022-12-18T04:36:01.549Z,11.20
2022-12-18T04:37:02.223Z,10.80
2022-12-18T04:38:01.473Z,9.17
2022-12-18T04:39:01.462Z,10.30
2022-12-18T04:40:01.457Z,11.90
2022-12-18T04:41:01.451Z,9.70
2022-12-18T04:42:01.842Z,11.40
2022-12-18T04:43:02.042Z,10.10
2022-12-18T04:44:01.467Z,10.90
2022-12-18T04:45:01.474Z,10.40
2022-12-18T04:46:02.340Z,9.57
2022-12-18T04:47:01.490Z,11.10
2022-12-18T04:48:03.526Z,9.40
2022-12-18T04:49:01.835Z,9.50
2022-12-18T04:50:01.452Z,10.60
2022-12-18T04:51:01.516Z,10.40
2022-12-18T04:52:01.815Z,7.90
2022-12-18T04:53:01.454Z,10.40
2022-12-18T04:54:01.471Z,9.90
2022-12-18T04:55:01.820Z,11.10
2022-12-18T04:56:03.478Z,10.30
2022-12-18T04:57:01.466Z,10.60
2022-12-18T04:58:01.785Z,11.10
2022-12-18T04:59:01.605Z,10.10
2022-12-18T05:00:03.175Z,9.90
2022-12-18T05:01:01.845Z,8.80
2022-12-18T05:02:01.912Z,10.90
2022-12-18T05:03:02.875Z,9.40
2022-12-18T05:04:01.760Z,10.60
2022-12-18T05:05:02.151Z,10.70
2022-12-18T05:06:02.287Z,11.90
2022-12-18T05:07:01.485Z,10.50
2022-12-18T05:08:01.541Z,10.30
2022-12-18T05:09:01.827Z,12.50
2022-12-18T05:10:03.414Z,10.50
2022-12-18T05:11:03.834Z,11.90
2022-12-18T05:12:01.489Z,12.50
2022-12-18T05:13:01.571Z,11.60
2022-12-18T05:14:01.883Z,11.50
2022-12-18T05:15:01.457Z,11.20
2022-12-18T05:16:02.838Z,11.60
2022-12-18T05:17:01.562Z,11.20
2022-12-18T05:18:02.551Z,12.50
2022-12-18T05:19:01.470Z,13.60
2022-12-18T05:20:01.464Z,11.90
2022-12-18T05:21:02.162Z,13.50
2022-12-18T05:22:02.235Z,10.70
2022-12-18T05:23:01.962Z,11.20
2022-12-18T05:24:01.825Z,11.40
2022-12-18T05:25:01.810Z,10.90
2022-12-18T05:26:04.829Z,12.40
2022-12-18T05:27:01.624Z,12.50
2022-12-18T05:28:01.469Z,12.20
2022-12-18T05:29:01.821Z,12.67
2022-12-18T05:30:01.812Z,11.10
2022-12-18T05:31:04.642Z,11.20
2022-12-18T05:32:01.723Z,11.80
2022-12-18T05:33:01.804Z,10.70
2022-12-18T05:34:01.463Z,11.30
2022-12-18T05:35:02.345Z,10.00
2022-12-18T05:36:04.095Z,12.20
2022-12-18T05:37:01.794Z,11.00
2022-12-18T05:38:01.453Z,12.40
2022-12-18T05:39:01.517Z,10.80
2022-12-18T05:40:02.364Z,12.10
2022-12-18T05:41:02.492Z,11.70
2022-12-18T05:42:01.471Z,12.40
2022-12-18T05:43:01.684Z,12.20
2022-12-18T05:44:01.645Z,13.30
2022-12-18T05:45:01.451Z,10.10
2022-12-18T05:46:04.488Z,11.20
2022-12-18T05:47:01.869Z,10.90
2022-12-18T05:48:01.447Z,12.70
2022-12-18T05:49:01.971Z,11.40
2022-12-18T05:50:01.471Z,12.70
2022-12-18T05:51:06.342Z,11.10
2022-12-18T05:52:02.199Z,12.00
2022-12-18T05:53:01.472Z,12.57
2022-12-18T05:54:01.828Z,10.50
2022-12-18T05:55:01.975Z,11.20
2022-12-18T05:56:03.017Z,10.80
2022-12-18T05:57:01.488Z,10.60
2022-12-18T05:58:01.821Z,10.60
2022-12-18T05:59:01.464Z,10.90
2022-12-18T06:00:01.525Z,10.20
2022-12-18T06:01:07.873Z,9.70
2022-12-18T06:02:01.969Z,10.07
2022-12-18T06:03:02.533Z,11.90
2022-12-18T06:04:01.564Z,10.00
2022-12-18T06:05:01.989Z,12.20
2022-12-18T06:06:01.500Z,12.30
2022-12-18T06:07:04.392Z,14.00
2022-12-18T06:08:01.614Z,12.40
2022-12-18T06:09:01.523Z,11.80
2022-12-18T06:10:01.797Z,10.80
2022-12-18T06:11:01.455Z,12.30
2022-12-18T06:12:01.769Z,11.70
2022-12-18T06:13:01.838Z,12.00
2022-12-18T06:14:03.043Z,9.30
2022-12-18T06:15:02.288Z,11.80
2022-12-18T06:16:02.538Z,10.70
2022-12-18T06:17:01.449Z,10.77
2022-12-18T06:18:01.795Z,11.80
2022-12-18T06:19:03.827Z,10.30
2022-12-18T06:20:01.866Z,10.50
2022-12-18T06:21:01.794Z,11.20
2022-12-18T06:22:01.459Z,11.80
2022-12-18T06:23:01.946Z,13.10
2022-12-18T06:24:01.462Z,11.30
2022-12-18T06:25:01.531Z,10.50
2022-12-18T06:26:04.592Z,13.00
2022-12-18T06:27:01.692Z,13.30
2022-12-18T06:28:01.455Z,10.50
2022-12-18T06:29:01.482Z,11.60
2022-12-18T06:30:02.237Z,11.80
2022-12-18T06:31:03.912Z,11.30
2022-12-18T06:32:01.493Z,11.90
2022-12-18T06:33:01.455Z,10.70
2022-12-18T06:34:03.665Z,11.20
2022-12-18T06:35:01.820Z,11.50
2022-12-18T06:36:04.060Z,13.70
2022-12-18T06:37:01.784Z,11.30
2022-12-18T06:38:02.374Z,12.30
2022-12-18T06:39:01.859Z,12.20
2022-12-18T06:40:01.457Z,11.50
2022-12-18T06:41:06.919Z,10.80
2022-12-18T06:42:01.451Z,12.80
2022-12-18T06:43:01.459Z,9.70
2022-12-18T06:44:01.487Z,13.93
2022-12-18T06:45:01.466Z,12.60
2022-12-18T06:46:02.641Z,9.40
2022-12-18T06:47:01.447Z,11.30
2022-12-18T06:48:01.676Z,10.10
2022-12-18T06:49:02.291Z,11.70
2022-12-18T06:50:01.487Z,11.30
2022-12-18T06:51:02.791Z,9.00
2022-12-18T06:52:01.448Z,11.50
2022-12-18T06:53:01.474Z,10.80
2022-12-18T06:54:01.549Z,12.10
2022-12-18T06:55:01.495Z,11.10
2022-12-18T06:56:09.241Z,10.10
2022-12-18T06:57:01.461Z,10.60
2022-12-18T06:58:01.960Z,11.10
2022-12-18T06:59:01.966Z,10.10
2022-12-18T07:00:02.083Z,11.20
2022-12-18T07:01:02.852Z,10.60
2022-12-18T07:02:01.868Z,10.90
2022-12-18T07:03:02.064Z,10.60
2022-12-18T07:04:01.474Z,11.30
2022-12-18T07:05:07.440Z,10.40
2022-12-18T07:06:02.811Z,11.10
2022-12-18T07:07:01.794Z,10.00
2022-12-18T07:08:01.449Z,9.57
2022-12-18T07:09:01.462Z,9.30
2022-12-18T07:10:01.834Z,11.10
2022-12-18T07:11:04.238Z,9.10
2022-12-18T07:12:01.895Z,10.10
2022-12-18T07:13:01.495Z,9.70
2022-12-18T07:14:01.542Z,9.90
2022-12-18T07:15:01.602Z,10.70
2022-12-18T07:16:10.891Z,10.30
2022-12-18T07:17:01.956Z,8.00
2022-12-18T07:18:01.942Z,8.70
2022-12-18T07:19:01.479Z,9.90
2022-12-18T07:20:01.485Z,11.40
2022-12-18T07:21:04.137Z,10.80
2022-12-18T07:22:02.355Z,10.10
2022-12-18T07:23:02.349Z,7.37
2022-12-18T07:24:01.451Z,9.03
2022-12-18T07:25:01.474Z,8.60
2022-12-18T07:26:02.927Z,7.67
2022-12-18T07:27:01.962Z,12.13
2022-12-18T07:28:02.258Z,9.47
2022-12-18T07:29:01.820Z,7.57
2022-12-18T07:30:01.509Z,9.97
2022-12-18T07:31:03.851Z,9.43
2022-12-18T07:32:01.581Z,8.07
2022-12-18T07:33:01.567Z,7.93
2022-12-18T07:34:01.829Z,9.83
2022-12-18T07:35:01.853Z,8.27
2022-12-18T07:36:03.669Z,7.93
2022-12-18T07:37:01.926Z,8.97
2022-12-18T07:38:01.445Z,7.00
2022-12-18T07:39:01.797Z,9.67
2022-12-18T07:40:01.516Z,9.10
2022-12-18T07:41:02.551Z,6.20
2022-12-18T07:42:01.797Z,8.40
2022-12-18T07:43:01.845Z,7.13
2022-12-18T07:44:01.800Z,8.87
2022-12-18T07:45:02.572Z,10.17
2022-12-18T07:46:01.560Z,7.57
2022-12-18T07:47:01.836Z,7.23
2022-12-18T07:48:01.452Z,8.43
2022-12-18T07:49:01.458Z,8.20
2022-12-18T07:50:01.485Z,7.50
2022-12-18T07:51:03.117Z,7.53
2022-12-18T07:52:01.458Z,7.63
2022-12-18T07:53:01.463Z,8.77
2022-12-18T07:54:01.451Z,7.53
2022-12-18T07:55:02.664Z,6.37
2022-12-18T07:56:26.534Z,9.40
2022-12-18T07:57:01.607Z,7.20
2022-12-18T07:58:02.279Z,7.47
2022-12-18T07:59:01.537Z,6.80
2022-12-18T08:00:01.844Z,6.93
2022-12-18T08:01:04.491Z,8.13
2022-12-18T08:02:01.889Z,6.60
2022-12-18T08:03:02.104Z,8.03
2022-12-18T08:04:01.461Z,6.80
2022-12-18T08:05:01.450Z,6.20
2022-12-18T08:06:02.364Z,8.07
2022-12-18T08:07:01.551Z,8.67
2022-12-18T08:08:01.789Z,7.20
2022-12-18T08:09:01.464Z,5.80
2022-12-18T08:10:01.854Z,6.90
2022-12-18T08:11:02.290Z,8.10
2022-12-18T08:12:01.458Z,7.00
2022-12-18T08:13:04.859Z,9.00
2022-12-18T08:14:01.824Z,6.77
2022-12-18T08:15:01.469Z,8.50
2022-12-18T08:16:04.207Z,6.33
2022-12-18T08:17:02.033Z,7.80
2022-12-18T08:18:01.443Z,8.20
2022-12-18T08:19:02.240Z,5.40
2022-12-18T08:20:01.488Z,6.00
2022-12-18T08:21:09.427Z,6.70
2022-12-18T08:22:01.778Z,6.90
2022-12-18T08:23:01.820Z,5.60
2022-12-18T08:24:02.356Z,6.90
2022-12-18T08:25:01.967Z,6.20
2022-12-18T08:26:01.825Z,6.77
2022-12-18T08:27:29.755Z,5.60
2022-12-18T08:28:01.596Z,6.50
2022-12-18T08:29:01.963Z,7.00
2022-12-18T08:30:01.744Z,7.53
2022-12-18T08:31:01.534Z,6.40
2022-12-18T08:32:01.522Z,7.10
2022-12-18T08:33:01.463Z,6.60
2022-12-18T08:34:01.853Z,7.00
2022-12-18T08:35:01.818Z,5.83
2022-12-18T08:36:02.741Z,5.33
2022-12-18T08:37:01.798Z,5.90
2022-12-18T08:38:01.446Z,7.30
2022-12-18T08:39:01.820Z,5.20
2022-12-18T08:40:02.342Z,6.83
2022-12-18T08:41:03.501Z,4.60
2022-12-18T08:42:04.191Z,5.23
2022-12-18T08:43:01.467Z,6.27
2022-12-18T08:44:01.476Z,4.40
2022-12-18T08:45:02.149Z,6.50
2022-12-18T08:46:01.853Z,6.37
2022-12-18T08:47:01.803Z,6.90
2022-12-18T08:48:01.465Z,6.30
2022-12-18T08:49:02.409Z,5.63
2022-12-18T08:50:02.453Z,5.93
2022-12-18T08:51:01.891Z,7.07
2022-12-18T08:52:01.970Z,5.57
2022-12-18T08:53:01.843Z,6.07
2022-12-18T08:54:02.390Z,6.67
2022-12-18T08:55:01.787Z,7.00
2022-12-18T08:56:02.012Z,5.27
2022-12-18T08:57:01.836Z,7.90
2022-12-18T08:58:01.469Z,5.40
2022-12-18T08:59:02.117Z,5.17
2022-12-18T09:00:01.443Z,5.00
2022-12-18T09:01:02.707Z,6.23
2022-12-18T09:02:01.995Z,5.73
2022-12-18T09:03:01.584Z,5.17
2022-12-18T09:04:01.930Z,4.93
2022-12-18T09:05:01.788Z,5.10
2022-12-18T09:06:01.827Z,5.83
2022-12-18T09:07:01.819Z,5.23
2022-12-18T09:08:01.484Z,5.27
2022-12-18T09:09:02.016Z,5.17
2022-12-18T09:10:01.482Z,5.53
2022-12-18T09:11:03.130Z,5.20
2022-12-18T09:12:01.704Z,4.63
2022-12-18T09:13:01.456Z,4.83
2022-12-18T09:14:02.187Z,4.67
2022-12-18T09:15:01.835Z,5.47
2022-12-18T09:16:04.016Z,4.30
2022-12-18T09:17:02.020Z,5.20
2022-12-18T09:18:01.463Z,4.93
2022-12-18T09:19:04.368Z,4.67
2022-12-18T09:20:01.793Z,5.50
2022-12-18T09:21:09.333Z,4.53
2022-12-18T09:22:01.450Z,5.60
2022-12-18T09:23:02.177Z,4.93
2022-12-18T09:24:01.846Z,4.23
2022-12-18T09:25:01.812Z,3.30
2022-12-18T09:26:01.802Z,5.07
2022-12-18T09:27:01.961Z,4.63
2022-12-18T09:28:02.546Z,4.63
2022-12-18T09:29:02.736Z,3.47
2022-12-18T09:30:03.278Z,3.87
2022-12-18T09:31:06.001Z,6.77
2022-12-18T09:32:01.462Z,3.00
2022-12-18T09:33:01.495Z,3.83
2022-12-18T09:34:02.081Z,4.57
2022-12-18T09:35:01.826Z,5.03
2022-12-18T09:36:03.325Z,5.80
2022-12-18T09:37:01.463Z,4.03
2022-12-18T09:38:01.452Z,4.90
2022-12-18T09:39:07.863Z,4.93
2022-12-18T09:40:01.445Z,4.83
2022-12-18T09:41:06.815Z,3.97
2022-12-18T09:42:01.848Z,5.33
2022-12-18T09:43:05.185Z,4.53
2022-12-18T09:44:11.465Z,3.07
2022-12-18T09:45:03.772Z,4.63
2022-12-18T09:46:06.564Z,4.83
2022-12-18T09:47:10.133Z,5.47
2022-12-18T09:48:02.359Z,5.30
2022-12-18T09:49:05.332Z,4.77
2022-12-18T09:50:17.267Z,5.97
2022-12-18T09:51:11.651Z,4.63
2022-12-18T09:52:08.652Z,4.87
2022-12-18T09:53:06.861Z,4.70
2022-12-18T09:54:07.084Z,4.27
2022-12-18T09:55:06.669Z,6.60
2022-12-18T09:56:04.368Z,4.87
2022-12-18T09:57:02.200Z,6.47
2022-12-18T09:58:11.753Z,5.43
2022-12-18T09:59:04.273Z,5.00
2022-12-18T10:00:11.773Z,5.53
2022-12-18T10:01:01.992Z,5.03
2022-12-18T10:02:15.540Z,4.70
2022-12-18T10:03:09.141Z,4.70
2022-12-18T10:04:01.523Z,6.23
2022-12-18T10:05:08.369Z,5.33
2022-12-18T10:06:11.139Z,5.07
2022-12-18T10:07:11.626Z,5.67
2022-12-18T10:08:11.249Z,4.63
2022-12-18T10:09:11.585Z,5.33
2022-12-18T10:10:11.809Z,5.43
2022-12-18T10:11:12.341Z,5.63
2022-12-18T10:12:08.697Z,5.80
2022-12-18T10:13:12.671Z,6.50
2022-12-18T10:14:10.053Z,4.07
2022-12-18T10:15:10.658Z,5.60
2022-12-18T10:16:12.904Z,6.47
2022-12-18T10:17:14.092Z,5.47
2022-12-18T10:18:18.732Z,5.47
2022-12-18T10:19:12.671Z,6.10
2022-12-18T10:20:10.759Z,8.17
2022-12-18T10:21:10.686Z,6.40
2022-12-18T10:22:11.415Z,5.63
2022-12-18T10:23:10.734Z,7.13
2022-12-18T10:24:16.187Z,6.00
2022-12-18T10:25:12.899Z,4.73
2022-12-18T10:26:04.502Z,5.13
2022-12-18T10:27:14.182Z,5.30
2022-12-18T10:28:12.745Z,4.27
2022-12-18T10:29:05.568Z,4.90
2022-12-18T10:30:11.562Z,5.90
2022-12-18T10:31:02.155Z,6.17
2022-12-18T10:32:01.469Z,8.77
2022-12-18T10:33:02.284Z,7.10
2022-12-18T10:34:01.455Z,5.20
2022-12-18T10:35:01.849Z,6.10
2022-12-18T10:36:01.458Z,5.00
2022-12-18T10:37:06.559Z,6.53
2022-12-18T10:38:06.807Z,5.70
2022-12-18T10:39:15.614Z,7.80
2022-12-18T10:40:09.478Z,8.30
2022-12-18T10:41:03.701Z,6.37
2022-12-18T10:42:11.680Z,7.37
2022-12-18T10:43:04.757Z,6.00
2022-12-18T10:44:14.980Z,8.03
2022-12-18T10:45:04.180Z,5.03
2022-12-18T10:46:12.275Z,5.80
2022-12-18T10:47:11.704Z,5.70
2022-12-18T10:48:01.869Z,7.33
2022-12-18T10:49:01.853Z,5.43
2022-12-18T10:50:01.989Z,5.30
2022-12-18T10:51:12.674Z,6.00
2022-12-18T10:52:12.917Z,8.33
2022-12-18T10:53:04.763Z,6.27
2022-12-18T10:54:04.333Z,7.30
2022-12-18T10:55:04.538Z,9.00
2022-12-18T10:56:04.635Z,6.90
2022-12-18T10:57:15.270Z,8.20
2022-12-18T10:58:26.323Z,6.00
2022-12-18T10:59:04.176Z,6.00
2022-12-18T11:00:20.874Z,5.90
2022-12-18T11:01:07.697Z,6.20
2022-12-18T11:02:01.981Z,7.60
2022-12-18T11:03:01.864Z,7.50
2022-12-18T11:04:08.396Z,5.40
2022-12-18T11:05:03.342Z,8.10
2022-12-18T11:06:06.281Z,8.53
2022-12-18T11:07:04.833Z,7.57
2022-12-18T11:08:02.072Z,8.00
2022-12-18T11:09:09.358Z,6.80
2022-12-18T11:10:02.545Z,6.00
2022-12-18T11:11:02.178Z,8.00
2022-12-18T11:12:04.369Z,7.60
2022-12-18T11:13:15.469Z,6.40
2022-12-18T11:14:04.246Z,8.30
2022-12-18T11:15:01.617Z,7.10
2022-12-18T11:16:02.072Z,8.90
2022-12-18T11:17:25.825Z,7.20
2022-12-18T11:18:01.535Z,7.10
2022-12-18T11:19:14.558Z,8.90
2022-12-18T11:20:04.472Z,9.30
2022-12-18T11:21:08.145Z,6.40
2022-12-18T11:22:13.059Z,7.90
2022-12-18T11:23:05.142Z,7.00
2022-12-18T11:24:01.689Z,8.90
2022-12-18T11:25:34.469Z,8.20
2022-12-18T11:26:04.438Z,7.40
2022-12-18T11:27:04.545Z,8.20
2022-12-18T11:28:04.598Z,8.70
2022-12-18T11:29:09.840Z,8.10
2022-12-18T11:30:09.476Z,7.00
2022-12-18T11:31:17.262Z,7.70
2022-12-18T11:32:20.869Z,6.10
2022-12-18T11:33:05.662Z,7.40
2022-12-18T11:34:29.238Z,9.20
2022-12-18T11:35:14.950Z,6.30
2022-12-18T11:36:05.937Z,6.40
2022-12-18T11:37:03.803Z,7.00
2022-12-18T11:38:10.535Z,9.00
2022-12-18T11:39:09.377Z,10.10
2022-12-18T11:40:09.752Z,9.60
2022-12-18T11:41:07.528Z,8.40
2022-12-18T11:42:09.057Z,9.20
2022-12-18T11:43:09.917Z,8.70
2022-12-18T11:44:07.201Z,9.40
2022-12-18T11:45:17.872Z,7.40
2022-12-18T11:46:07.289Z,8.50
2022-12-18T11:47:09.832Z,8.80
2022-12-18T11:48:09.702Z,7.70
2022-12-18T11:49:07.872Z,9.40
2022-12-18T11:50:12.150Z,8.57
2022-12-18T11:51:06.193Z,9.20
2022-12-18T11:52:11.135Z,9.10
2022-12-18T11:53:05.580Z,8.10
2022-12-18T11:54:10.130Z,8.00
2022-12-18T11:55:11.703Z,9.50
2022-12-18T11:56:17.525Z,7.50
2022-12-18T11:57:11.633Z,10.10
2022-12-18T11:58:10.622Z,7.70
2022-12-18T11:59:17.555Z,9.70
2022-12-18T12:00:05.135Z,10.00
2022-12-18T12:01:12.948Z,11.10
2022-12-18T12:02:20.776Z,9.10
2022-12-18T12:03:20.570Z,8.10
2022-12-18T12:04:18.708Z,8.40
2022-12-18T12:05:19.722Z,8.90
2022-12-18T12:06:10.412Z,9.10
2022-12-18T12:07:16.587Z,9.10
2022-12-18T12:08:10.327Z,8.90
2022-12-18T12:09:10.080Z,7.83
2022-12-18T12:10:12.579Z,7.27
2022-12-18T12:11:13.666Z,11.63
2022-12-18T12:12:20.667Z,6.83
2022-12-18T12:13:20.875Z,9.30
2022-12-18T12:14:15.190Z,8.20
2022-12-18T12:15:13.248Z,7.40
2022-12-18T12:16:16.008Z,11.03
2022-12-18T12:17:10.410Z,8.30
2022-12-18T12:18:11.438Z,9.70
2022-12-18T12:19:20.596Z,9.00
2022-12-18T12:20:13.282Z,8.70
2022-12-18T12:21:11.074Z,8.80
2022-12-18T12:22:12.797Z,9.40
2022-12-18T12:23:11.627Z,7.93
2022-12-18T12:24:19.908Z,9.20
2022-12-18T12:25:14.436Z,9.70
2022-12-18T12:26:06.300Z,8.70
2022-12-18T12:27:06.996Z,10.00
2022-12-18T12:28:15.806Z,9.60
2022-12-18T12:29:10.642Z,8.80
2022-12-18T12:30:14.859Z,8.10
2022-12-18T12:31:05.867Z,7.43
2022-12-18T12:32:11.553Z,8.50
2022-12-18T12:33:12.379Z,9.43
2022-12-18T12:34:11.422Z,13.03
2022-12-18T12:35:11.300Z,9.50
2022-12-18T12:36:13.487Z,8.87
2022-12-18T12:37:16.107Z,7.47
2022-12-18T12:38:09.484Z,8.10
2022-12-18T12:39:08.439Z,8.40
2022-12-18T12:40:11.004Z,8.57
2022-12-18T12:41:05.558Z,9.40
2022-12-18T12:42:04.398Z,8.90
2022-12-18T12:43:10.488Z,9.97
2022-12-18T12:44:07.126Z,9.43
2022-12-18T12:45:07.115Z,7.63
2022-12-18T12:46:05.575Z,9.73
2022-12-18T12:47:11.556Z,8.67
2022-12-18T12:48:04.468Z,7.73
2022-12-18T12:49:03.787Z,7.77
2022-12-18T12:50:11.599Z,9.90
2022-12-18T12:51:09.580Z,9.67
2022-12-18T12:52:12.666Z,9.07
2022-12-18T12:53:06.156Z,8.97
2022-12-18T12:54:05.511Z,10.23
2022-12-18T12:55:04.622Z,8.67
2022-12-18T12:56:03.435Z,8.47
2022-12-18T12:57:09.230Z,10.27
2022-12-18T12:58:08.478Z,6.80
2022-12-18T12:59:12.970Z,8.00
2022-12-18T13:00:05.654Z,8.53
2022-12-18T13:01:10.286Z,8.40
2022-12-18T13:02:15.975Z,9.33
2022-12-18T13:03:11.638Z,8.63
2022-12-18T13:04:13.318Z,9.77
2022-12-18T13:05:12.427Z,10.30
2022-12-18T13:06:08.209Z,8.23
2022-12-18T13:07:06.902Z,8.03
2022-12-18T13:08:07.226Z,9.67
2022-12-18T13:09:02.748Z,8.57
2022-12-18T13:10:13.504Z,8.17